Time;durP1;ratioP1;P1;durP2;ratioP2;P2;SDS_P1;SDS_P2;PMS_P1;PMS_P2;Temp;Humidity;BMP_temperature;BMP_pressure;BME280_temperature;BME280_humidity;BME280_pressure;Samples;Min_cycle;Max_cycle;Signal;HPM_P1;HPM_P2
2023/09/10 00:00:34;;;;;;;8.90;8.10;;;20.30;99.90;;;;;;4992686;28;20233;-71
2023/09/10 00:03:00;;;;;;;8.95;7.63;;;20.20;99.90;;;;;;4993756;28;20177;-71
2023/09/10 00:05:26;;;;;;;11.38;8.75;;;20.20;99.90;;;;;;4993444;28;20611;-71
2023/09/10 00:07:52;;;;;;;13.40;8.35;;;20.20;99.90;;;;;;4993584;28;20637;-71
2023/09/10 00:10:18;;;;;;;10.50;8.52;;;20.20;99.90;;;;;;4992052;28;20185;-71
2023/09/10 00:12:43;;;;;;;11.80;8.35;;;20.10;99.90;;;;;;4993637;28;20204;-71
2023/09/10 00:15:09;;;;;;;10.13;8.27;;;20.00;99.90;;;;;;4993455;28;20181;-71
2023/09/10 00:17:35;;;;;;;9.48;8.23;;;20.00;99.90;;;;;;4993186;28;20231;-72
2023/09/10 00:20:00;;;;;;;12.27;8.63;;;20.00;99.90;;;;;;4993311;28;20580;-71
2023/09/10 00:22:26;;;;;;;9.63;8.10;;;20.00;99.90;;;;;;4993146;28;20176;-72
2023/09/10 00:24:52;;;;;;;9.88;8.25;;;20.00;99.90;;;;;;4993419;28;20180;-71
2023/09/10 00:27:17;;;;;;;18.73;8.98;;;20.00;99.90;;;;;;4993140;28;20184;-71
2023/09/10 00:29:43;;;;;;;13.98;9.02;;;20.00;99.90;;;;;;4992888;28;20219;-71
2023/09/10 00:32:08;;;;;;;14.90;8.68;;;19.90;99.90;;;;;;4993034;28;20675;-71
2023/09/10 00:34:34;;;;;;;15.52;8.75;;;19.90;99.90;;;;;;4991873;28;20327;-71
2023/09/10 00:37:01;;;;;;;14.70;10.48;;;19.90;99.90;;;;;;4993296;28;20179;-71
2023/09/10 00:39:26;;;;;;;12.10;10.25;;;19.90;99.90;;;;;;4992508;28;20216;-71
2023/09/10 00:41:55;;;;;;;14.43;10.77;;;19.90;99.90;;;;;;4992872;28;20176;-71
2023/09/10 00:44:23;;;;;;;13.98;9.60;;;19.80;99.90;;;;;;4992428;28;20177;-72
2023/09/10 00:46:51;;;;;;;12.82;11.02;;;19.80;99.90;;;;;;4991729;28;20604;-71
2023/09/10 00:49:17;;;;;;;17.85;10.13;;;19.80;99.90;;;;;;4992460;28;20197;-71
2023/09/10 00:51:44;;;;;;;15.52;10.70;;;19.80;99.90;;;;;;4992705;28;20176;-71
2023/09/10 00:54:10;;;;;;;17.15;11.32;;;19.80;99.90;;;;;;4992736;28;20188;-71
2023/09/10 00:56:36;;;;;;;12.50;10.32;;;19.70;99.90;;;;;;4992751;28;20243;-71
2023/09/10 00:59:02;;;;;;;17.85;11.25;;;19.70;99.90;;;;;;4992618;28;20216;-70
2023/09/10 01:01:29;;;;;;;14.25;10.82;;;19.70;99.90;;;;;;4992315;28;20652;-71
2023/09/10 01:03:55;;;;;;;14.43;10.47;;;19.60;99.90;;;;;;4992463;28;20192;-70
2023/09/10 01:06:22;;;;;;;19.30;11.43;;;19.60;99.90;;;;;;4992333;28;20567;-71
2023/09/10 01:08:48;;;;;;;17.48;11.23;;;19.60;99.90;;;;;;4992329;28;20209;-71
2023/09/10 01:11:43;;;;;;;15.63;11.55;;;19.60;99.90;;;;;;4992394;28;20553;-71
2023/09/10 01:14:18;;;;;;;16.23;11.35;;;19.50;99.90;;;;;;4984946;28;20193;-71
2023/09/10 01:16:51;;;;;;;15.67;11.37;;;19.50;99.90;;;;;;4992209;28;20215;-71
2023/09/10 01:19:42;;;;;;;13.75;11.60;;;19.50;99.90;;;;;;4991814;28;20204;-72
2023/09/10 01:22:21;;;;;;;16.75;11.57;;;19.50;99.90;;;;;;4987665;28;20215;-71
2023/09/10 01:24:55;;;;;;;16.30;11.65;;;19.40;99.90;;;;;;4986171;28;20180;-70
2023/09/10 01:27:20;;;;;;;15.18;12.07;;;19.40;99.90;;;;;;4991933;28;20165;-71
2023/09/10 01:29:46;;;;;;;18.50;12.20;;;19.40;99.90;;;;;;4991768;28;20227;-71
2023/09/10 01:32:23;;;;;;;15.38;12.48;;;19.40;99.90;;;;;;4992105;28;20196;-71
2023/09/10 01:34:57;;;;;;;18.77;13.43;;;19.30;99.90;;;;;;4984794;28;20725;-71
2023/09/10 01:37:34;;;;;;;15.40;13.20;;;19.30;99.90;;;;;;4992077;28;20648;-71
2023/09/10 01:40:03;;;;;;;16.45;13.52;;;19.30;99.90;;;;;;4991822;28;20212;-71
2023/09/10 01:42:28;;;;;;;22.73;13.30;;;19.30;99.90;;;;;;4991982;28;20252;-71
2023/09/10 01:44:55;;;;;;;18.05;13.40;;;19.20;99.90;;;;;;4991707;28;20632;-71
2023/09/10 01:47:21;;;;;;;15.50;13.27;;;19.20;99.90;;;;;;4991715;28;20195;-71
2023/09/10 01:49:46;;;;;;;22.85;14.48;;;19.20;99.90;;;;;;4983356;28;20205;-71
2023/09/10 01:52:12;;;;;;;16.45;13.10;;;19.20;99.90;;;;;;4991819;28;20188;-71
2023/09/10 01:54:38;;;;;;;17.13;13.00;;;19.20;99.90;;;;;;4991540;28;20189;-71
2023/09/10 01:57:04;;;;;;;22.97;14.07;;;19.10;99.90;;;;;;4991019;28;20200;-71
2023/09/10 01:59:29;;;;;;;19.00;14.10;;;19.10;99.90;;;;;;4991219;28;20747;-71
2023/09/10 02:01:55;;;;;;;19.38;13.85;;;19.10;99.90;;;;;;4990299;28;20188;-71
2023/09/10 02:04:20;;;;;;;15.63;13.67;;;19.10;99.90;;;;;;4991494;28;20188;-71
2023/09/10 02:06:46;;;;;;;17.30;13.32;;;19.10;99.90;;;;;;4991398;28;20588;-71
2023/09/10 02:09:11;;;;;;;17.07;13.53;;;19.10;99.90;;;;;;4991251;28;20207;-71
2023/09/10 02:11:37;;;;;;;16.03;13.17;;;19.10;99.90;;;;;;4991764;28;20263;-70
2023/09/10 02:14:03;;;;;;;16.20;12.43;;;19.10;99.90;;;;;;4991586;28;20648;-70
2023/09/10 02:16:28;;;;;;;18.48;13.80;;;19.20;99.90;;;;;;4991400;28;20326;-71
2023/09/10 02:18:54;;;;;;;15.67;13.40;;;19.10;99.90;;;;;;4991227;28;20215;-71
2023/09/10 02:21:19;;;;;;;15.77;13.15;;;19.20;99.90;;;;;;4991431;28;20551;-71
2023/09/10 02:23:45;;;;;;;19.80;14.48;;;19.20;99.90;;;;;;4991774;28;20180;-71
2023/09/10 02:26:11;;;;;;;17.55;13.63;;;19.20;99.90;;;;;;4991870;28;20328;-72
2023/09/10 02:28:36;;;;;;;17.77;15.32;;;19.20;99.90;;;;;;4990911;28;20222;-72
2023/09/10 02:31:08;;;;;;;17.57;14.43;;;19.20;99.90;;;;;;4991952;28;20193;-71
2023/09/10 02:33:35;;;;;;;17.75;15.02;;;19.20;99.90;;;;;;4991340;28;20304;-72
2023/09/10 02:36:01;;;;;;;23.03;15.90;;;19.30;99.90;;;;;;4991532;28;20181;-70
2023/09/10 02:38:27;;;;;;;17.03;14.07;;;19.30;99.90;;;;;;4991139;28;20266;-71
2023/09/10 02:40:55;;;;;;;16.48;14.65;;;19.30;99.90;;;;;;4991634;28;20208;-71
2023/09/10 02:43:20;;;;;;;18.27;16.00;;;19.20;99.90;;;;;;4991755;28;20169;-71
2023/09/10 02:45:46;;;;;;;22.85;16.35;;;19.20;99.90;;;;;;4991204;28;20228;-71
2023/09/10 02:48:11;;;;;;;19.67;16.20;;;19.20;99.90;;;;;;4991593;28;20197;-71
2023/09/10 02:50:37;;;;;;;17.57;15.60;;;19.30;99.90;;;;;;4991213;28;20193;-71
2023/09/10 02:53:04;;;;;;;22.77;16.88;;;19.30;99.90;;;;;;4991221;28;20623;-71
2023/09/10 02:55:29;;;;;;;20.03;15.60;;;19.30;99.90;;;;;;4991249;28;20251;-71
2023/09/10 02:57:55;;;;;;;21.50;16.45;;;19.30;99.90;;;;;;4991162;28;20264;-71
2023/09/10 03:00:25;;;;;;;25.83;16.75;;;19.30;99.90;;;;;;4990952;28;20680;-71
2023/09/10 03:02:55;;;;;;;20.13;16.60;;;19.30;99.90;;;;;;4991367;28;20231;-71
2023/09/10 03:05:21;;;;;;;19.90;15.95;;;19.30;99.90;;;;;;4990873;28;20181;-71
2023/09/10 03:07:50;;;;;;;22.77;16.13;;;19.30;99.90;;;;;;4992234;28;20235;-71
2023/09/10 03:10:16;;;;;;;18.07;15.33;;;19.30;99.90;;;;;;4994823;28;20181;-71
2023/09/10 03:12:41;;;;;;;24.70;16.13;;;19.30;99.90;;;;;;4993223;28;20245;-71
2023/09/10 03:15:07;;;;;;;24.40;16.63;;;19.30;99.90;;;;;;4994996;28;20191;-70
2023/09/10 03:17:33;;;;;;;18.58;16.00;;;19.30;99.90;;;;;;4994678;28;20637;-70
2023/09/10 03:19:58;;;;;;;25.90;16.73;;;19.30;99.90;;;;;;4994537;28;20263;-71
2023/09/10 03:22:24;;;;;;;19.50;16.23;;;19.30;99.90;;;;;;4994649;28;20192;-71
2023/09/10 03:24:49;;;;;;;17.60;15.80;;;19.30;99.90;;;;;;4994585;28;20189;-71
2023/09/10 03:27:15;;;;;;;18.40;15.80;;;19.30;99.90;;;;;;4995139;28;20212;-71
2023/09/10 03:29:42;;;;;;;20.63;15.25;;;19.30;99.90;;;;;;4994108;28;20223;-71
2023/09/10 03:32:08;;;;;;;19.70;16.03;;;19.30;99.90;;;;;;4992618;28;20181;-71
2023/09/10 03:34:34;;;;;;;19.60;15.63;;;19.30;99.90;;;;;;4994170;28;20549;-71
2023/09/10 03:36:59;;;;;;;22.40;17.17;;;19.30;99.90;;;;;;4993446;28;20188;-71
2023/09/10 03:39:25;;;;;;;21.20;16.80;;;19.30;99.90;;;;;;4990647;28;20251;-71
2023/09/10 03:41:52;;;;;;;21.17;16.70;;;19.30;99.90;;;;;;4992162;28;20189;-70
2023/09/10 03:44:18;;;;;;;21.15;15.82;;;19.30;99.90;;;;;;4986026;28;20678;-71
2023/09/10 03:46:44;;;;;;;23.60;18.23;;;19.30;99.90;;;;;;4976416;28;20173;-70
2023/09/10 03:49:09;;;;;;;21.52;17.48;;;19.30;99.90;;;;;;4978067;28;20248;-70
2023/09/10 03:51:35;;;;;;;23.08;17.75;;;19.30;99.90;;;;;;4985470;28;20648;-71
2023/09/10 03:54:01;;;;;;;21.27;16.60;;;19.30;99.90;;;;;;4984523;28;20197;-71
2023/09/10 03:56:26;;;;;;;20.25;17.23;;;19.30;99.90;;;;;;4979050;28;20189;-71
2023/09/10 03:58:52;;;;;;;21.40;18.50;;;19.30;99.90;;;;;;4977837;28;20228;-70
2023/09/10 04:01:17;;;;;;;22.30;17.90;;;19.30;99.90;;;;;;4993958;28;20184;-71
2023/09/10 04:03:43;;;;;;;21.80;19.00;;;19.30;99.90;;;;;;4992766;28;20191;-71
2023/09/10 04:06:09;;;;;;;19.70;17.60;;;19.30;99.90;;;;;;4978879;28;20193;-71
2023/09/10 04:08:34;;;;;;;21.42;17.27;;;19.20;99.90;;;;;;4992612;28;20625;-71
2023/09/10 04:11:00;;;;;;;19.75;17.38;;;19.20;99.90;;;;;;4993651;28;20187;-70
2023/09/10 04:13:26;;;;;;;21.03;18.13;;;19.20;99.90;;;;;;4991893;28;20193;-71
2023/09/10 04:15:51;;;;;;;25.25;19.83;;;19.20;99.90;;;;;;4980876;28;20189;-71
2023/09/10 04:18:17;;;;;;;32.80;18.45;;;19.20;99.90;;;;;;4982484;28;20562;-71
2023/09/10 04:20:42;;;;;;;28.10;19.33;;;19.20;99.90;;;;;;4988567;28;20713;-70
2023/09/10 04:23:08;;;;;;;21.60;18.33;;;19.20;99.90;;;;;;4973069;28;20174;-71
2023/09/10 04:25:34;;;;;;;22.48;18.73;;;19.20;99.90;;;;;;4992279;28;20188;-71
2023/09/10 04:27:59;;;;;;;24.03;19.00;;;19.20;99.90;;;;;;4992790;28;20181;-71
2023/09/10 04:30:25;;;;;;;27.97;18.53;;;19.10;99.90;;;;;;4991307;28;20208;-70
2023/09/10 04:32:50;;;;;;;23.40;18.80;;;19.10;99.90;;;;;;4980270;28;20192;-70
2023/09/10 04:35:16;;;;;;;25.73;20.30;;;19.10;99.90;;;;;;4988836;28;20195;-70
2023/09/10 04:37:42;;;;;;;25.17;18.63;;;19.00;99.90;;;;;;4981694;28;20568;-70
2023/09/10 04:40:08;;;;;;;23.60;18.73;;;19.00;99.90;;;;;;4987213;28;20350;-70
2023/09/10 04:42:34;;;;;;;27.30;18.37;;;19.00;99.90;;;;;;4975017;28;20224;-71
2023/09/10 04:45:01;;;;;;;21.05;17.63;;;18.90;99.90;;;;;;4987286;28;20176;-71
2023/09/10 04:47:26;;;;;;;23.90;18.43;;;18.90;99.90;;;;;;4991782;28;20180;-71
2023/09/10 04:49:52;;;;;;;21.17;18.80;;;18.90;99.90;;;;;;4991260;28;20213;-71
2023/09/10 04:52:17;;;;;;;23.73;19.38;;;18.90;99.90;;;;;;4992903;28;20591;-71
2023/09/10 04:54:43;;;;;;;21.15;18.50;;;18.80;99.90;;;;;;4984961;28;20184;-71
2023/09/10 04:57:10;;;;;;;23.17;19.00;;;18.80;99.90;;;;;;4993173;28;20224;-71
2023/09/10 04:59:36;;;;;;;26.83;20.57;;;18.70;99.90;;;;;;4992523;28;20299;-71
2023/09/10 05:02:02;;;;;;;22.47;19.30;;;18.70;99.90;;;;;;4980892;28;20268;-71
2023/09/10 05:04:28;;;;;;;21.47;19.17;;;18.60;99.90;;;;;;4982358;28;20673;-71
2023/09/10 05:06:53;;;;;;;23.20;18.70;;;18.60;99.90;;;;;;4992976;28;20195;-71
2023/09/10 05:09:19;;;;;;;28.10;18.93;;;18.60;99.90;;;;;;4992493;28;20208;-71
2023/09/10 05:11:44;;;;;;;24.20;18.53;;;18.60;99.90;;;;;;4986992;28;20186;-71
2023/09/10 05:14:10;;;;;;;23.43;18.70;;;18.60;99.90;;;;;;4979436;28;20189;-71
2023/09/10 05:16:35;;;;;;;24.70;19.67;;;18.60;99.90;;;;;;4992400;28;20188;-71
2023/09/10 05:19:01;;;;;;;28.83;19.50;;;18.60;99.90;;;;;;4992186;28;20232;-71
2023/09/10 05:21:27;;;;;;;22.27;18.33;;;18.70;99.90;;;;;;4982495;28;20181;-71
2023/09/10 05:23:52;;;;;;;24.03;18.50;;;18.70;99.90;;;;;;4975858;28;20180;-70
2023/09/10 05:26:18;;;;;;;26.10;19.10;;;18.80;99.90;;;;;;4983978;28;20209;-71
2023/09/10 05:28:43;;;;;;;28.10;20.97;;;18.80;99.90;;;;;;4979099;28;20593;-71
2023/09/10 05:31:09;;;;;;;23.52;18.15;;;18.90;99.90;;;;;;4985308;28;20174;-72
2023/09/10 05:33:35;;;;;;;21.27;18.77;;;18.90;99.90;;;;;;4980914;28;20263;-71
2023/09/10 05:36:01;;;;;;;21.67;18.17;;;19.00;99.90;;;;;;4991854;28;20268;-71
2023/09/10 05:38:26;;;;;;;24.17;19.13;;;19.10;99.90;;;;;;4991853;28;20209;-71
2023/09/10 05:40:53;;;;;;;20.90;18.17;;;19.10;99.90;;;;;;4987007;28;20443;-71
2023/09/10 05:43:19;;;;;;;25.83;19.17;;;19.20;99.90;;;;;;4980684;28;20243;-72
2023/09/10 05:45:47;;;;;;;20.50;18.15;;;19.30;99.90;;;;;;4991310;28;20196;-71
2023/09/10 05:48:13;;;;;;;24.17;18.05;;;19.30;99.90;;;;;;4992577;28;20201;-72
2023/09/10 05:50:40;;;;;;;24.02;17.42;;;19.40;99.90;;;;;;4976103;28;20186;-71
2023/09/10 05:53:06;;;;;;;21.42;17.08;;;19.40;99.90;;;;;;4985893;28;20542;-72
2023/09/10 05:55:32;;;;;;;23.65;16.27;;;19.50;99.90;;;;;;4990208;28;20184;-72
2023/09/10 05:57:58;;;;;;;22.35;15.95;;;19.50;99.90;;;;;;4990184;28;20200;-71
2023/09/10 06:00:23;;;;;;;17.38;14.98;;;19.50;99.90;;;;;;4979071;28;20331;-71
2023/09/10 06:02:49;;;;;;;18.48;16.25;;;19.60;99.90;;;;;;4984075;28;20660;-71
2023/09/10 06:05:16;;;;;;;19.35;15.45;;;19.60;99.90;;;;;;4990337;28;20180;-72
2023/09/10 06:07:42;;;;;;;23.70;14.98;;;19.70;99.90;;;;;;4991683;28;20255;-72
2023/09/10 06:10:09;;;;;;;20.30;14.82;;;19.80;99.90;;;;;;4979389;28;20309;-72
2023/09/10 06:12:38;;;;;;;23.02;14.45;;;19.90;99.90;;;;;;4980915;28;20187;-71
2023/09/10 06:15:06;;;;;;;19.35;13.63;;;19.90;99.90;;;;;;4979581;28;20268;-71
2023/09/10 06:17:32;;;;;;;17.98;14.25;;;20.00;99.90;;;;;;4980815;28;20191;-72
2023/09/10 06:19:58;;;;;;;17.52;13.73;;;20.10;99.90;;;;;;4983022;28;20208;-71
2023/09/10 06:22:23;;;;;;;17.85;13.18;;;20.30;99.90;;;;;;4983858;28;20668;-72
2023/09/10 06:24:49;;;;;;;13.68;12.15;;;20.60;99.90;;;;;;4991360;28;20184;-72
2023/09/10 06:27:14;;;;;;;18.80;11.27;;;20.90;99.90;;;;;;4991499;28;20235;-72
2023/09/10 06:29:40;;;;;;;12.15;10.55;;;21.30;99.90;;;;;;4983538;28;20295;-71
2023/09/10 06:32:06;;;;;;;15.23;10.52;;;21.60;99.90;;;;;;4973413;28;20272;-72
2023/09/10 06:34:32;;;;;;;12.40;9.38;;;21.90;99.90;;;;;;4990147;28;20619;-72
2023/09/10 06:36:58;;;;;;;18.25;10.10;;;22.20;99.90;;;;;;4991541;28;20204;-71
2023/09/10 06:39:24;;;;;;;11.43;9.00;;;22.50;99.90;;;;;;4982869;28;20700;-72
2023/09/10 06:41:54;;;;;;;11.57;9.23;;;22.80;99.90;;;;;;4975514;28;20239;-72
2023/09/10 06:44:20;;;;;;;11.18;8.40;;;23.10;99.90;;;;;;4994811;28;20173;-71
2023/09/10 06:46:46;;;;;;;14.60;9.70;;;23.30;99.90;;;;;;4994446;28;20691;-71
2023/09/10 06:49:11;;;;;;;12.10;9.43;;;23.70;99.90;;;;;;4987560;28;20279;-73
2023/09/10 06:51:37;;;;;;;10.25;8.20;;;24.00;99.90;;;;;;4980347;28;20181;-71
2023/09/10 06:54:03;;;;;;;13.50;8.85;;;24.40;99.90;;;;;;4994923;28;20252;-73
2023/09/10 06:56:31;;;;;;;9.25;8.15;;;24.80;99.90;;;;;;4993332;28;20395;-73
2023/09/10 06:58:57;;;;;;;13.60;8.02;;;25.30;99.90;;;;;;4982548;28;20193;-73
2023/09/10 07:01:22;;;;;;;15.38;8.43;;;25.70;99.90;;;;;;4978308;28;20684;-73
2023/09/10 07:03:52;;;;;;;9.93;8.40;;;26.00;1.00;;;;;;4989789;28;20188;-73
2023/09/10 07:06:18;;;;;;;15.52;8.30;;;26.10;99.90;;;;;;4994725;28;20181;-73
2023/09/10 07:08:43;;;;;;;20.00;9.10;;;26.30;1.00;;;;;;4991728;28;20208;-73
2023/09/10 07:11:09;;;;;;;11.73;7.60;;;26.40;99.90;;;;;;4984610;28;20265;-73
2023/09/10 07:13:37;;;;;;;11.30;7.95;;;26.60;99.90;;;;;;4982337;28;20684;-72
2023/09/10 07:16:03;;;;;;;11.82;8.32;;;26.90;99.90;;;;;;4981945;28;20216;-73
2023/09/10 07:18:33;;;;;;;10.15;8.32;;;27.00;99.90;;;;;;4992280;28;20215;-72
2023/09/10 07:21:02;;;;;;;8.70;7.07;;;27.30;99.90;;;;;;4988622;28;20208;-72
2023/09/10 07:23:28;;;;;;;9.75;7.75;;;27.60;1.00;;;;;;4983536;28;20541;-73
2023/09/10 07:25:55;;;;;;;12.15;8.43;;;27.80;1.00;;;;;;4989427;28;20260;-72
2023/09/10 07:28:21;;;;;;;12.85;7.25;;;27.90;1.00;;;;;;4988440;28;20283;-71
2023/09/10 07:30:46;;;;;;;8.93;7.30;;;27.90;1.00;;;;;;4986147;28;20280;-72
2023/09/10 07:33:12;;;;;;;11.40;7.00;;;27.80;1.00;;;;;;4994180;28;20181;-73
2023/09/10 07:35:37;;;;;;;9.90;6.93;;;27.90;1.00;;;;;;4993646;28;20220;-72
2023/09/10 07:38:03;;;;;;;11.00;6.78;;;28.20;1.00;;;;;;4985228;28;20189;-72
2023/09/10 07:40:29;;;;;;;10.15;7.03;;;28.30;1.00;;;;;;4987738;28;20299;-73
2023/09/10 07:42:55;;;;;;;8.93;6.47;;;28.60;1.00;;;;;;4994161;28;20176;-73
2023/09/10 07:45:21;;;;;;;13.23;7.40;;;28.90;1.00;;;;;;4988998;28;20239;-73
2023/09/10 07:47:47;;;;;;;11.20;7.15;;;29.20;1.00;;;;;;4988650;28;20181;-72
2023/09/10 07:50:13;;;;;;;10.60;6.88;;;29.50;1.00;;;;;;4983654;28;20208;-73
2023/09/10 07:52:38;;;;;;;14.85;6.68;;;29.70;1.00;;;;;;4986259;28;20657;-73
2023/09/10 07:55:04;;;;;;;13.75;6.75;;;29.90;1.00;;;;;;4989493;28;20267;-73
2023/09/10 07:57:30;;;;;;;9.75;7.15;;;30.10;1.00;;;;;;4992899;28;20180;-72
2023/09/10 07:59:55;;;;;;;9.80;6.07;;;30.30;1.00;;;;;;4977972;28;20201;-73
2023/09/10 08:02:22;;;;;;;11.10;6.97;;;30.50;1.00;;;;;;4980366;28;20547;-73
2023/09/10 08:04:48;;;;;;;9.18;6.68;;;30.80;1.00;;;;;;4975137;28;20266;-73
2023/09/10 08:07:14;;;;;;;14.40;6.28;;;30.90;1.00;;;;;;4988071;28;20269;-73
2023/09/10 08:09:39;;;;;;;10.93;6.32;;;31.00;1.00;;;;;;4989297;28;20408;-73
2023/09/10 08:12:05;;;;;;;10.10;6.50;;;30.70;1.00;;;;;;4977586;28;20555;-73
2023/09/10 08:14:31;;;;;;;10.57;6.40;;;30.60;1.00;;;;;;4982141;28;20612;-73
2023/09/10 08:16:56;;;;;;;9.63;7.40;;;30.90;1.00;;;;;;4993472;28;20261;-73
2023/09/10 08:19:22;;;;;;;12.13;6.22;;;31.30;1.00;;;;;;4993025;28;20217;-73
2023/09/10 08:21:48;;;;;;;10.77;6.00;;;31.60;1.00;;;;;;4992258;28;20181;-73
2023/09/10 08:24:14;;;;;;;7.28;5.20;;;31.90;1.00;;;;;;4993036;28;20184;-74
2023/09/10 08:26:39;;;;;;;9.75;5.28;;;32.20;1.00;;;;;;4993592;28;20259;-73
2023/09/10 08:29:05;;;;;;;9.93;5.63;;;32.50;1.00;;;;;;4993070;28;20219;-73
2023/09/10 08:31:32;;;;;;;7.43;5.45;;;32.80;1.00;;;;;;4993460;28;20255;-73
2023/09/10 08:33:57;;;;;;;12.35;6.07;;;33.30;1.00;;;;;;4993301;28;20687;-73
2023/09/10 08:36:23;;;;;;;9.30;5.65;;;33.40;1.00;;;;;;4993145;28;20189;-73
2023/09/10 08:38:49;;;;;;;11.18;5.78;;;33.50;1.00;;;;;;4992754;28;20570;-73
2023/09/10 08:41:30;;;;;;;10.05;5.70;;;33.60;1.00;;;;;;4993159;28;20207;-73
2023/09/10 08:43:57;;;;;;;8.15;4.97;;;34.00;1.00;;;;;;4993007;28;20188;-73
2023/09/10 08:46:30;;;;;;;9.55;5.00;;;34.10;1.00;;;;;;4992054;28;20232;-73
2023/09/10 08:48:57;;;;;;;10.07;5.47;;;34.20;1.00;;;;;;4992572;28;20196;-73
2023/09/10 08:51:23;;;;;;;9.07;5.18;;;34.40;1.00;;;;;;4993089;28;20235;-73
2023/09/10 08:53:51;;;;;;;13.73;5.32;;;34.50;1.00;;;;;;4987597;28;20260;-73
2023/09/10 08:56:17;;;;;;;8.23;5.55;;;34.80;1.00;;;;;;4992793;28;20243;-73
2023/09/10 08:58:45;;;;;;;9.35;5.30;;;35.10;1.00;;;;;;4992012;28;20244;-73
2023/09/10 09:01:12;;;;;;;8.15;4.75;;;35.10;1.00;;;;;;4992838;28;20204;-73
2023/09/10 09:03:38;;;;;;;7.32;4.93;;;35.40;1.00;;;;;;4992911;28;20656;-73
2023/09/10 09:06:04;;;;;;;10.90;5.30;;;35.10;1.00;;;;;;4992316;28;20259;-73
2023/09/10 09:08:32;;;;;;;11.10;5.82;;;35.00;1.00;;;;;;4990778;28;20204;-73
2023/09/10 09:11:03;;;;;;;12.85;5.32;;;35.10;1.00;;;;;;4991249;28;20644;-73
2023/09/10 09:13:35;;;;;;;11.18;5.63;;;35.30;1.00;;;;;;4992577;28;20189;-73
2023/09/10 09:16:02;;;;;;;10.95;4.80;;;35.40;1.00;;;;;;4992680;28;20185;-73
2023/09/10 09:18:29;;;;;;;8.30;5.18;;;35.60;1.00;;;;;;4992216;28;20579;-73
2023/09/10 09:21:00;;;;;;;9.40;5.32;;;35.90;1.00;;;;;;4992283;28;20204;-73
2023/09/10 09:23:32;;;;;;;9.75;5.18;;;36.30;1.00;;;;;;4992044;28;20200;-73
2023/09/10 09:25:58;;;;;;;10.55;5.03;;;36.40;1.00;;;;;;4992184;28;20265;-73
2023/09/10 09:28:25;;;;;;;9.45;5.15;;;36.60;1.00;;;;;;4991751;28;20732;-73
2023/09/10 09:30:52;;;;;;;11.60;5.30;;;36.80;1.00;;;;;;4992174;28;20219;-73
2023/09/10 09:33:17;;;;;;;7.82;4.72;;;37.20;1.00;;;;;;4992226;28;20177;-73
2023/09/10 09:35:45;;;;;;;9.30;4.45;;;37.20;99.90;;;;;;4991505;28;20188;-73
2023/09/10 09:38:13;;;;;;;7.28;4.53;;;37.10;99.90;;;;;;4990228;28;20204;-73
2023/09/10 09:40:39;;;;;;;8.38;4.32;;;36.90;99.90;;;;;;4991954;28;20196;-73
2023/09/10 09:43:09;;;;;;;10.88;5.00;;;36.80;99.90;;;;;;4990740;28;20564;-73
2023/09/10 09:45:36;;;;;;;9.68;4.78;;;36.80;99.90;;;;;;4990539;28;20964;-73
2023/09/10 09:48:06;;;;;;;9.05;4.70;;;36.80;99.90;;;;;;4991510;28;20180;-72
2023/09/10 09:50:32;;;;;;;11.65;4.47;;;36.80;99.90;;;;;;4991441;28;20195;-72
2023/09/10 09:52:58;;;;;;;8.88;5.07;;;36.90;99.90;;;;;;4990674;28;20664;-72
2023/09/10 09:55:24;;;;;;;6.70;4.95;;;36.90;99.90;;;;;;4988642;28;20729;-73
2023/09/10 09:57:50;;;;;;;9.88;4.72;;;36.50;99.90;;;;;;4989680;28;20288;-73
2023/09/10 10:00:16;;;;;;;11.73;4.75;;;36.50;99.90;;;;;;4990992;28;20295;-72
2023/09/10 10:02:44;;;;;;;8.50;5.88;;;36.50;99.90;;;;;;4991759;28;20213;-73
2023/09/10 10:05:11;;;;;;;7.10;6.40;;;36.40;99.90;;;;;;4991552;28;20176;-73
2023/09/10 10:07:37;;;;;;;7.57;5.20;;;36.40;99.90;;;;;;4991377;28;20181;-72
2023/09/10 10:10:08;;;;;;;8.68;5.20;;;36.50;99.90;;;;;;4991440;28;20726;-72
2023/09/10 10:12:34;;;;;;;13.60;6.85;;;36.40;99.90;;;;;;4989937;28;20192;-73
2023/09/10 10:15:00;;;;;;;8.90;5.03;;;36.40;99.90;;;;;;4991344;28;20180;-73
2023/09/10 10:17:26;;;;;;;9.77;5.28;;;36.30;99.90;;;;;;4990771;28;20652;-73
2023/09/10 10:19:52;;;;;;;10.75;5.32;;;36.20;99.90;;;;;;4990756;28;20208;-73
2023/09/10 10:22:22;;;;;;;6.45;4.97;;;36.00;99.90;;;;;;4991022;28;20364;-73
2023/09/10 10:24:49;;;;;;;12.90;5.22;;;35.70;99.90;;;;;;4991350;28;20172;-73
2023/09/10 10:27:16;;;;;;;6.97;4.75;;;35.50;99.90;;;;;;4991787;28;20176;-72
2023/09/10 10:29:42;;;;;;;13.82;5.15;;;35.40;99.90;;;;;;4991050;28;20247;-72
2023/09/10 10:32:21;;;;;;;7.25;4.93;;;35.30;99.90;;;;;;4991142;28;20184;-72
2023/09/10 10:34:56;;;;;;;9.52;4.97;;;35.10;99.90;;;;;;4991223;28;20656;-72
2023/09/10 10:37:22;;;;;;;9.43;5.00;;;35.00;99.90;;;;;;4991373;28;20219;-72
2023/09/10 10:40:08;;;;;;;9.05;5.50;;;34.70;99.90;;;;;;4990774;28;20289;-72
2023/09/10 10:43:11;;;;;;;13.90;4.90;;;34.70;99.90;;;;;;4991334;28;20196;-72
2023/09/10 10:45:37;;;;;;;10.52;5.07;;;34.50;99.90;;;;;;4991478;28;20181;-72
2023/09/10 10:48:31;;;;;;;10.02;5.32;;;34.30;99.90;;;;;;4990732;28;20601;-72
2023/09/10 10:50:58;;;;;;;11.18;5.43;;;34.40;99.90;;;;;;4990484;28;20197;-72
2023/09/10 10:53:25;;;;;;;8.57;4.88;;;34.20;99.90;;;;;;4991311;28;20206;-72
2023/09/10 10:55:55;;;;;;;9.70;5.35;;;34.00;99.90;;;;;;4991246;28;20181;-72
2023/09/10 10:58:23;;;;;;;7.03;4.18;;;33.90;99.90;;;;;;4990400;28;20200;-72
2023/09/10 11:00:54;;;;;;;10.30;5.05;;;33.90;99.90;;;;;;4989864;28;20693;-73
2023/09/10 11:03:21;;;;;;;5.75;4.97;;;33.90;99.90;;;;;;4991683;28;20200;-72
2023/09/10 11:05:57;;;;;;;10.02;5.38;;;33.90;99.90;;;;;;4991211;28;20172;-72
2023/09/10 11:08:50;;;;;;;12.50;5.25;;;34.00;99.90;;;;;;4990958;28;20250;-72
2023/09/10 11:11:33;;;;;;;9.02;5.30;;;33.90;99.90;;;;;;4991076;28;20197;-72
2023/09/10 11:14:02;;;;;;;6.78;4.32;;;33.90;99.90;;;;;;4990795;28;20188;-72
2023/09/10 11:16:32;;;;;;;7.90;4.88;;;34.00;99.90;;;;;;4986264;28;20548;-73
2023/09/10 11:18:58;;;;;;;9.38;5.53;;;34.10;99.90;;;;;;4990761;28;20274;-72
2023/09/10 11:21:56;;;;;;;9.20;5.20;;;34.30;99.90;;;;;;4991088;28;20209;-72
2023/09/10 11:24:21;;;;;;;8.65;5.47;;;34.30;99.90;;;;;;4990915;28;20664;-71
2023/09/10 11:26:47;;;;;;;8.13;5.15;;;34.30;99.90;;;;;;4990967;28;20187;-72
2023/09/10 11:29:17;;;;;;;8.10;5.00;;;34.20;99.90;;;;;;4992191;28;20213;-72
2023/09/10 11:31:46;;;;;;;8.40;4.85;;;34.10;99.90;;;;;;4994462;28;20241;-72
2023/09/10 11:34:17;;;;;;;9.75;5.53;;;34.10;99.90;;;;;;4994070;28;20173;-72
2023/09/10 11:36:50;;;;;;;12.55;5.20;;;34.20;99.90;;;;;;4994430;28;20263;-72
2023/09/10 11:39:17;;;;;;;5.72;4.65;;;34.40;99.90;;;;;;4993826;28;20211;-72
2023/09/10 11:41:54;;;;;;;8.15;4.60;;;34.50;99.90;;;;;;4994250;28;20185;-72
2023/09/10 11:44:20;;;;;;;6.45;5.05;;;34.60;99.90;;;;;;4994451;28;20235;-72
2023/09/10 11:46:46;;;;;;;8.40;4.45;;;34.80;99.90;;;;;;4994138;28;20184;-72
2023/09/10 11:49:12;;;;;;;13.00;4.80;;;35.00;99.90;;;;;;4993084;28;20200;-72
2023/09/10 11:51:42;;;;;;;7.50;4.63;;;35.00;99.90;;;;;;4994151;28;20172;-72
2023/09/10 11:54:08;;;;;;;9.85;4.53;;;35.00;99.90;;;;;;4994068;28;20239;-72
2023/09/10 11:56:34;;;;;;;10.52;4.90;;;35.20;99.90;;;;;;4992639;28;20648;-72
2023/09/10 11:59:00;;;;;;;11.63;5.18;;;35.30;99.90;;;;;;4993515;28;20289;-72
2023/09/10 12:01:26;;;;;;;7.30;4.80;;;35.30;99.90;;;;;;4992655;28;20220;-72
2023/09/10 12:03:51;;;;;;;9.50;5.43;;;35.40;99.90;;;;;;4993671;28;20181;-73
2023/09/10 12:06:17;;;;;;;9.23;4.80;;;35.30;99.90;;;;;;4993801;28;20187;-72
2023/09/10 12:08:44;;;;;;;12.43;5.20;;;35.20;99.90;;;;;;4992928;28;20213;-72
2023/09/10 12:11:11;;;;;;;12.57;4.90;;;35.30;99.90;;;;;;4992324;28;20188;-72
2023/09/10 12:13:38;;;;;;;8.13;4.82;;;35.50;99.90;;;;;;4989615;28;20205;-72
2023/09/10 12:16:04;;;;;;;7.07;5.60;;;35.80;99.90;;;;;;4993614;28;20555;-72
2023/09/10 12:18:31;;;;;;;7.75;5.03;;;36.10;99.90;;;;;;4993316;28;20201;-72
2023/09/10 12:21:00;;;;;;;8.10;4.53;;;36.20;99.90;;;;;;4993458;28;20200;-72
2023/09/10 12:23:26;;;;;;;6.80;4.70;;;36.40;99.90;;;;;;4993076;28;20189;-72
2023/09/10 12:25:56;;;;;;;9.30;4.78;;;36.50;99.90;;;;;;4992300;28;20192;-72
2023/09/10 12:28:23;;;;;;;5.35;4.45;;;36.60;99.90;;;;;;4992971;28;20251;-72
2023/09/10 12:30:49;;;;;;;9.50;4.93;;;36.80;99.90;;;;;;4993432;28;20559;-72
2023/09/10 12:33:15;;;;;;;11.38;4.95;;;37.00;99.90;;;;;;4993338;28;20239;-72
2023/09/10 12:35:41;;;;;;;7.13;4.35;;;37.10;99.90;;;;;;4992679;28;20497;-73